Terminal Aerodrome Forecast
Issued by NWS Raleigh/Durham, NC

Home | Current Version | Previous Version | Text Only | Print | Product List | Glossary On
Versions: 1 2 3 4 5 6 7 8 9 10 11 12 13 14 15 16 17 18 19 20 21 22 23 24 25 26 27 28
000
FTUS42 KRAH 241125
TAFGSO
TAF
KGSO 241125Z 2412/2512 VRB03KT P6SM FEW080
      TEMPO 2412/2413 3SM BR SCT004
     FM241300 19006KT P6SM SCT015
      TEMPO 2413/2416 BKN015
     FM241700 19006KT P6SM SCT040
      TEMPO 2509/2512 BKN008=

USA.gov is the U.S. government's official web portal to all federal, state and local government web resources and services.